British Holly — MCZN2 — position and weather

sailwx.info

Track history (hours):
 
Tides and Currents Weather Stations Pressure Air Temp Water Temp Dewpoint Dewpoint Depression Visibility Wind Speed Wind Dir Waves Ship Positions

British Holly

Last reported at 2014-Nov-25 22:00 UTC. Time now 2014-Nov-26 12:49 UTC.
Position N 15°42' E 115°54'.

Type: Tanker. MMSI: 235814000.

Wind from 060 at 11 knots

Barometer 1010.1 mb
Air temperature 26.8 ° C
Visibility: greater than 10.8 NM
Dewpoint 24.2 ° C

Date/timePositionNaut miles runAvg speedWind from/ knotsBaromVisibWave heightAir tempDewpointWater temp
2014-Nov-25 22:00N 15°42' E 115°54'   060 / 111010.110.8 26.824.2
2014-Nov-21 22:00N 33°12' E 124°24'31112.6 140 / 71021.710.8 0.517.013.5
2014-Nov-20 21:21N 38°08' E 122°28'1215.2
2014-Nov-20 20:33N 38°10' E 122°13'3615.4
2014-Nov-20 18:14N 38°17' E 121°29'5112.3
2014-Nov-20 14:07N 38°18' E 120°24'914.8
2014-Nov-20 13:30N 38°11' E 120°16'1415.0
2014-Nov-20 12:33N 37°58' E 120°08'1414.1
2014-Nov-20 11:33N 37°46' E 119°60'1312.6
2014-Nov-20 10:32N 37°34' E 119°53'9 9.4
2014-Nov-20 09:34N 37°25' E 119°57'0 0.2
2014-Nov-20 07:23N 37°25' E 119°57'  
Track history (hours):
 
Tides and Currents Weather Stations Pressure Air Temp Water Temp Dewpoint Dewpoint Depression Visibility Wind Speed Wind Dir Waves Ship Positions

British Holly

Last reported at 2014-Nov-25 22:00 UTC. Time now 2014-Nov-26 12:49 UTC.
Position N 15°42' E 115°54'.

Type: Tanker. MMSI: 235814000.

Wind from 060 at 11 knots

Barometer 1010.1 mb
Air temperature 26.8 ° C
Visibility: greater than 10.8 NM
Dewpoint 24.2 ° C

Date/timePositionNaut miles runAvg speedWind from/ knotsBaromVisibWave heightAir tempDewpointWater temp
2014-Nov-25 22:00N 15°42' E 115°54'   060 / 111010.110.8 26.824.2
2014-Nov-21 22:00N 33°12' E 124°24'31112.6 140 / 71021.710.8 0.517.013.5
2014-Nov-20 21:21N 38°08' E 122°28'1215.2
2014-Nov-20 20:33N 38°10' E 122°13'3615.4
2014-Nov-20 18:14N 38°17' E 121°29'5112.3
2014-Nov-20 14:07N 38°18' E 120°24'914.8
2014-Nov-20 13:30N 38°11' E 120°16'1415.0
2014-Nov-20 12:33N 37°58' E 120°08'1414.1
2014-Nov-20 11:33N 37°46' E 119°60'1312.6
2014-Nov-20 10:32N 37°34' E 119°53'9 9.4
2014-Nov-20 09:34N 37°25' E 119°57'0 0.2
2014-Nov-20 07:23N 37°25' E 119°57'  

Dump ship's entire track history